createdAt,value
2023-01-11T00:00:49.718Z,1.10
2023-01-11T00:03:18.058Z,1.50
2023-01-11T00:05:46.280Z,2.15
2023-01-11T00:08:15.742Z,1.60
2023-01-11T00:10:43.721Z,1.88
2023-01-11T00:13:11.677Z,2.10
2023-01-11T00:15:40.647Z,2.47
2023-01-11T00:18:08.621Z,2.50
2023-01-11T00:20:36.955Z,2.75
2023-01-11T00:23:04.933Z,2.22
2023-01-11T00:25:34.390Z,1.85
2023-01-11T00:28:02.418Z,2.13
2023-01-11T00:30:30.429Z,2.22
2023-01-11T00:32:58.667Z,2.83
2023-01-11T00:35:27.605Z,0.95
2023-01-11T00:37:55.710Z,1.65
2023-01-11T00:40:26.385Z,2.13
2023-01-11T00:43:13.463Z,3.35
2023-01-11T00:46:13.846Z,2.38
2023-01-11T00:48:41.957Z,1.75
2023-01-11T00:51:09.872Z,1.80
2023-01-11T00:53:37.748Z,1.27
2023-01-11T00:56:06.133Z,1.73
2023-01-11T00:58:35.425Z,2.35
2023-01-11T01:01:07.840Z,0.93
2023-01-11T01:03:35.995Z,2.00
2023-01-11T01:06:03.933Z,1.35
2023-01-11T01:08:31.845Z,2.70
2023-01-11T01:10:59.918Z,2.30
2023-01-11T01:13:45.440Z,1.27
2023-01-11T01:16:14.862Z,1.75
2023-01-11T01:18:42.928Z,1.50
2023-01-11T01:21:10.968Z,1.30
2023-01-11T01:23:38.911Z,2.33
2023-01-11T01:26:07.829Z,2.38
2023-01-11T01:28:35.881Z,1.02
2023-01-11T01:31:04.050Z,0.57
2023-01-11T01:33:33.439Z,0.60
2023-01-11T01:36:02.310Z,0.70
2023-01-11T01:38:31.098Z,1.88
2023-01-11T01:40:59.043Z,1.08
2023-01-11T01:43:47.739Z,1.38
2023-01-11T01:46:16.100Z,0.75
2023-01-11T01:48:47.830Z,1.05
2023-01-11T01:51:20.171Z,1.35
2023-01-11T01:53:51.203Z,2.03
2023-01-11T01:56:24.128Z,1.58
2023-01-11T01:58:57.209Z,0.40
2023-01-11T02:01:42.815Z,1.00
2023-01-11T02:04:15.542Z,2.40
2023-01-11T02:06:44.156Z,0.80
2023-01-11T02:09:20.188Z,1.08
2023-01-11T02:11:48.311Z,0.82
2023-01-11T02:14:20.197Z,1.08
2023-01-11T02:16:48.143Z,0.57
2023-01-11T02:19:27.977Z,1.55
2023-01-11T02:22:15.564Z,1.23
2023-01-11T02:25:11.158Z,0.50
2023-01-11T02:28:07.638Z,1.10
2023-01-11T02:30:42.961Z,0.82
2023-01-11T02:33:23.509Z,3.53
2023-01-11T02:36:02.031Z,1.40
2023-01-11T02:38:34.989Z,1.42
2023-01-11T02:41:10.105Z,3.22
2023-01-11T02:44:05.113Z,1.65
2023-01-11T02:46:40.729Z,1.80
2023-01-11T02:49:14.746Z,3.50
2023-01-11T02:51:48.481Z,1.52
2023-01-11T02:54:20.647Z,1.95
2023-01-11T02:56:52.695Z,0.55
2023-01-11T02:59:24.882Z,2.22
2023-01-11T03:01:55.717Z,2.38
2023-01-11T03:04:25.422Z,1.40
2023-01-11T03:07:03.634Z,1.95
2023-01-11T03:09:39.698Z,2.70
2023-01-11T03:12:42.347Z,2.90
2023-01-11T03:15:26.550Z,2.22
2023-01-11T03:18:05.120Z,1.33
2023-01-11T03:20:36.596Z,2.20
2023-01-11T03:23:13.644Z,2.50
2023-01-11T03:25:51.119Z,3.17
2023-01-11T03:28:26.785Z,2.05
2023-01-11T03:31:03.465Z,1.25
2023-01-11T03:33:38.844Z,4.22
2023-01-11T03:36:16.307Z,1.73
2023-01-11T03:38:50.241Z,2.85
2023-01-11T03:41:23.627Z,3.10
2023-01-11T03:43:54.615Z,3.83
2023-01-11T03:46:28.805Z,1.88
2023-01-11T03:49:03.696Z,3.47
2023-01-11T03:51:35.807Z,1.45
2023-01-11T03:54:08.263Z,2.00
2023-01-11T03:56:42.294Z,2.60
2023-01-11T03:59:10.405Z,3.22
2023-01-11T04:01:40.573Z,3.28
2023-01-11T04:04:08.624Z,3.70
2023-01-11T04:06:38.541Z,4.88
2023-01-11T04:09:06.767Z,3.03
2023-01-11T04:11:34.736Z,2.67
2023-01-11T04:14:02.924Z,3.25
2023-01-11T04:16:30.886Z,5.20
2023-01-11T04:19:00.270Z,3.05
2023-01-11T04:21:28.270Z,3.03
2023-01-11T04:23:56.227Z,2.42
2023-01-11T04:26:24.163Z,2.72
2023-01-11T04:28:54.210Z,2.00
2023-01-11T04:31:22.435Z,3.33
2023-01-11T04:33:50.471Z,4.03
2023-01-11T04:36:19.850Z,3.42
2023-01-11T04:38:47.874Z,2.95
2023-01-11T04:41:33.030Z,2.58
2023-01-11T04:44:01.094Z,6.00
2023-01-11T04:46:29.115Z,3.30
2023-01-11T04:48:57.384Z,3.83
2023-01-11T04:51:26.644Z,3.05
2023-01-11T04:53:54.855Z,3.05
2023-01-11T04:56:22.824Z,4.38
2023-01-11T04:58:50.800Z,2.80
2023-01-11T05:01:20.086Z,2.80
2023-01-11T05:03:48.546Z,2.78
2023-01-11T05:06:16.820Z,3.08
2023-01-11T05:08:48.429Z,3.30
2023-01-11T05:11:17.703Z,3.90
2023-01-11T05:13:45.770Z,2.70
2023-01-11T05:16:17.651Z,2.40
2023-01-11T05:18:47.281Z,1.88
2023-01-11T05:21:17.052Z,2.22
2023-01-11T05:23:45.309Z,4.07
2023-01-11T05:26:17.637Z,4.68
2023-01-11T05:28:46.212Z,3.15
2023-01-11T05:31:14.853Z,1.70
2023-01-11T05:33:43.127Z,1.50
2023-01-11T05:36:14.410Z,3.35
2023-01-11T05:38:42.778Z,2.03
2023-01-11T05:41:11.799Z,2.17
2023-01-11T05:43:54.973Z,2.95
2023-01-11T05:46:23.479Z,3.25
2023-01-11T05:48:51.763Z,3.85
2023-01-11T05:51:19.691Z,2.92
2023-01-11T05:53:47.713Z,1.95
2023-01-11T05:56:15.809Z,1.40
2023-01-11T05:58:48.255Z,2.67
2023-01-11T06:01:16.728Z,3.50
2023-01-11T06:03:45.346Z,2.28
2023-01-11T06:06:13.932Z,3.88
2023-01-11T06:08:41.949Z,4.10
2023-01-11T06:11:09.991Z,1.77
2023-01-11T06:13:37.948Z,2.22
2023-01-11T06:16:10.528Z,2.92
2023-01-11T06:18:40.447Z,3.33
2023-01-11T06:21:09.536Z,2.53
2023-01-11T06:23:38.821Z,3.50
2023-01-11T06:26:09.067Z,2.58
2023-01-11T06:28:37.683Z,3.33
2023-01-11T06:31:08.239Z,3.10
2023-01-11T06:33:37.458Z,2.58
2023-01-11T06:36:07.398Z,3.85
2023-01-11T06:38:36.039Z,3.42
2023-01-11T06:41:05.453Z,1.95
2023-01-11T06:43:33.703Z,2.50
2023-01-11T06:46:01.682Z,2.47
2023-01-11T06:48:31.173Z,3.38
2023-01-11T06:51:00.212Z,3.45
2023-01-11T06:53:29.499Z,3.15
2023-01-11T06:55:59.172Z,4.57
2023-01-11T06:58:27.787Z,2.70
2023-01-11T07:00:57.961Z,4.35
2023-01-11T07:03:27.451Z,3.60
2023-01-11T07:05:58.251Z,2.95
2023-01-11T07:08:27.083Z,3.53
2023-01-11T07:10:55.728Z,4.55
2023-01-11T07:13:24.405Z,3.10
2023-01-11T07:15:54.309Z,3.13
2023-01-11T07:18:22.518Z,3.00
2023-01-11T07:20:51.977Z,2.92
2023-01-11T07:23:21.354Z,3.60
2023-01-11T07:25:49.663Z,2.95
2023-01-11T07:28:17.725Z,4.88
2023-01-11T07:30:57.271Z,3.53
2023-01-11T07:33:26.554Z,3.72
2023-01-11T07:35:54.893Z,3.40
2023-01-11T07:38:24.383Z,2.45
2023-01-11T07:40:52.565Z,2.85
2023-01-11T07:43:23.086Z,2.55
2023-01-11T07:45:53.264Z,3.80
2023-01-11T07:48:25.270Z,2.90
2023-01-11T07:50:54.223Z,3.15
2023-01-11T07:53:25.443Z,3.78
2023-01-11T07:55:56.221Z,2.97
2023-01-11T07:58:24.792Z,2.63
2023-01-11T08:00:52.697Z,5.68
2023-01-11T08:03:21.030Z,2.63
2023-01-11T08:05:51.557Z,4.43
2023-01-11T08:08:19.580Z,2.05
2023-01-11T08:10:47.591Z,2.97
2023-01-11T08:13:35.249Z,6.88
2023-01-11T08:16:03.298Z,4.13
2023-01-11T08:18:31.270Z,3.50
2023-01-11T08:20:59.335Z,3.08
2023-01-11T08:23:27.611Z,3.03
2023-01-11T08:25:58.547Z,3.13
2023-01-11T08:28:28.168Z,2.78
2023-01-11T08:30:56.201Z,1.20
2023-01-11T08:33:24.909Z,3.47
2023-01-11T08:35:52.871Z,2.08
2023-01-11T08:38:20.745Z,1.30
2023-01-11T08:40:48.753Z,3.65
2023-01-11T08:43:16.646Z,3.70
2023-01-11T08:45:46.048Z,0.90
2023-01-11T08:48:15.995Z,2.63
2023-01-11T08:50:44.959Z,2.28
2023-01-11T08:53:13.875Z,2.85
2023-01-11T08:55:44.516Z,2.38
2023-01-11T08:58:12.464Z,1.58
2023-01-11T09:00:40.719Z,1.80
2023-01-11T09:03:11.912Z,1.02
2023-01-11T09:05:40.878Z,1.35
2023-01-11T09:08:10.211Z,0.95
2023-01-11T09:10:38.503Z,1.70
2023-01-11T09:13:06.503Z,1.38
2023-01-11T09:15:34.636Z,2.47
2023-01-11T09:18:03.168Z,2.35
2023-01-11T09:20:32.861Z,0.82
2023-01-11T09:23:00.760Z,1.83
2023-01-11T09:25:28.649Z,2.50
2023-01-11T09:27:56.683Z,1.73
2023-01-11T09:30:25.195Z,0.90
2023-01-11T09:32:54.512Z,2.40
2023-01-11T09:35:22.715Z,2.97
2023-01-11T09:37:54.485Z,0.98
2023-01-11T09:40:24.922Z,1.08
2023-01-11T09:42:57.495Z,5.72
2023-01-11T09:45:28.372Z,4.72
2023-01-11T09:48:04.871Z,2.63
2023-01-11T09:50:39.907Z,2.13
2023-01-11T09:53:19.412Z,1.27
2023-01-11T09:55:52.192Z,1.92
2023-01-11T09:58:37.925Z,12.15
2023-01-11T10:01:12.406Z,2.67
2023-01-11T10:04:26.074Z,2.53
2023-01-11T10:07:13.021Z,1.98
2023-01-11T10:18:33.921Z,3.72
2023-01-11T10:19:12.263Z,4.70
2023-01-11T10:21:44.104Z,6.20
2023-01-11T10:24:21.676Z,16.38
2023-01-11T10:26:54.243Z,21.75
2023-01-11T10:29:46.136Z,17.83
2023-01-11T10:32:39.208Z,15.55
2023-01-11T10:35:29.270Z,11.55
2023-01-11T10:38:22.980Z,9.45
2023-01-11T10:41:04.707Z,11.27
2023-01-11T10:43:38.578Z,95.00
2023-01-11T10:46:11.180Z,218.85
2023-01-11T10:48:40.663Z,355.60
2023-01-11T10:51:23.282Z,209.70
2023-01-11T10:53:59.854Z,169.20
2023-01-11T10:56:42.541Z,137.38
2023-01-11T10:59:29.454Z,112.97
2023-01-11T11:02:08.307Z,85.72
2023-01-11T11:04:59.405Z,67.15
2023-01-11T11:07:34.451Z,53.63
2023-01-11T11:10:08.210Z,50.40
2023-01-11T11:12:39.293Z,40.30
2023-01-11T11:15:18.826Z,34.03
2023-01-11T11:17:50.865Z,27.50
2023-01-11T11:20:21.296Z,26.67
2023-01-11T11:22:51.948Z,23.67
2023-01-11T11:25:23.078Z,19.63
2023-01-11T11:27:53.814Z,19.33
2023-01-11T11:30:32.756Z,18.10
2023-01-11T11:33:03.366Z,14.63
2023-01-11T11:35:33.467Z,14.93
2023-01-11T11:38:01.567Z,14.77
2023-01-11T11:40:32.728Z,15.02
2023-01-11T11:43:21.510Z,12.80
2023-01-11T11:45:59.066Z,10.13
2023-01-11T11:48:28.451Z,11.98
2023-01-11T11:50:58.433Z,9.93
2023-01-11T11:53:51.183Z,11.80
2023-01-11T11:56:25.340Z,9.60
2023-01-11T11:58:54.861Z,9.63
2023-01-11T12:01:32.906Z,8.30
2023-01-11T12:04:03.987Z,10.82
2023-01-11T12:06:32.431Z,9.80
2023-01-11T12:09:03.662Z,7.88
2023-01-11T12:11:34.987Z,6.13
2023-01-11T12:14:16.503Z,10.27
2023-01-11T12:16:49.418Z,5.53
2023-01-11T12:19:28.628Z,6.47
2023-01-11T12:22:11.742Z,7.03
2023-01-11T12:24:39.713Z,6.07
2023-01-11T12:27:19.124Z,6.30
2023-01-11T12:30:08.516Z,6.32
2023-01-11T12:33:06.279Z,5.07
2023-01-11T12:35:41.413Z,6.47
2023-01-11T12:38:24.266Z,5.45
2023-01-11T12:41:08.553Z,5.43
2023-01-11T12:43:53.295Z,6.40
2023-01-11T12:46:30.854Z,4.60
2023-01-11T12:49:18.242Z,4.97
2023-01-11T12:52:03.161Z,2.95
2023-01-11T12:54:53.738Z,13.45
2023-01-11T12:57:28.258Z,6.88
2023-01-11T13:00:18.684Z,8.63
2023-01-11T13:03:09.397Z,8.13
2023-01-11T13:05:52.606Z,7.03
2023-01-11T13:08:27.691Z,4.47
2023-01-11T13:11:02.868Z,3.17
2023-01-11T13:13:37.577Z,3.85
2023-01-11T13:16:14.513Z,3.50
2023-01-11T13:18:47.337Z,2.88
2023-01-11T13:21:31.550Z,2.75
2023-01-11T13:24:04.700Z,2.65
2023-01-11T13:26:37.816Z,3.35
2023-01-11T13:29:13.826Z,1.55
2023-01-11T13:31:43.436Z,3.03
2023-01-11T13:34:17.109Z,2.30
2023-01-11T13:36:52.734Z,3.13
2023-01-11T13:39:28.468Z,2.30
2023-01-11T13:41:59.947Z,2.30
2023-01-11T13:44:32.191Z,2.30
2023-01-11T13:47:08.079Z,2.58
2023-01-11T13:49:45.401Z,7.07
2023-01-11T13:52:17.293Z,2.17
2023-01-11T13:54:54.698Z,1.58
2023-01-11T13:57:31.698Z,2.03
2023-01-11T14:00:07.676Z,2.20
2023-01-11T14:02:45.280Z,2.15
2023-01-11T14:05:18.269Z,3.10
2023-01-11T14:08:07.225Z,1.55
2023-01-11T14:10:45.927Z,1.90
2023-01-11T14:14:15.525Z,2.13
2023-01-11T14:16:58.623Z,2.20
2023-01-11T14:19:32.068Z,1.55
2023-01-11T14:22:12.078Z,1.33
2023-01-11T14:24:45.091Z,1.67
2023-01-11T14:27:46.353Z,2.00
2023-01-11T14:30:35.790Z,1.50
2023-01-11T14:33:20.070Z,1.52
2023-01-11T14:36:16.009Z,2.25
2023-01-11T14:39:21.118Z,3.50
2023-01-11T14:42:16.252Z,2.38
2023-01-11T14:45:13.389Z,0.85
2023-01-11T14:47:55.855Z,2.17
2023-01-11T14:50:34.930Z,2.78
2023-01-11T14:53:04.515Z,1.40
2023-01-11T14:55:37.461Z,2.97
2023-01-11T14:58:18.966Z,2.08
2023-01-11T15:01:13.543Z,1.40
2023-01-11T15:03:56.211Z,2.00
2023-01-11T15:06:24.738Z,2.22
2023-01-11T15:08:55.932Z,3.03
2023-01-11T15:11:36.002Z,1.00
2023-01-11T15:14:24.777Z,2.63
2023-01-11T15:17:17.405Z,1.88
2023-01-11T15:19:45.835Z,2.30
2023-01-11T15:22:26.131Z,2.40
2023-01-11T15:25:00.937Z,3.95
2023-01-11T15:27:34.276Z,1.83
2023-01-11T15:30:06.195Z,0.60
2023-01-11T15:32:35.811Z,2.10
2023-01-11T15:35:18.931Z,1.92
2023-01-11T15:37:57.237Z,2.17
2023-01-11T15:40:27.570Z,1.27
2023-01-11T15:43:41.308Z,2.08
2023-01-11T15:46:55.730Z,1.48
2023-01-11T15:50:02.975Z,2.38
2023-01-11T15:53:14.855Z,2.08
2023-01-11T15:56:20.881Z,1.85
2023-01-11T15:59:29.443Z,1.40
2023-01-11T16:02:34.874Z,1.42
2023-01-11T16:05:15.764Z,1.60
2023-01-11T16:07:47.808Z,1.50
2023-01-11T16:10:37.529Z,1.10
2023-01-11T16:13:28.123Z,1.25
2023-01-11T16:16:17.286Z,1.45
2023-01-11T16:18:50.827Z,1.88
2023-01-11T16:21:28.284Z,0.90
2023-01-11T16:23:56.808Z,1.73
2023-01-11T16:26:25.105Z,0.85
2023-01-11T16:28:56.045Z,1.27
2023-01-11T16:31:25.259Z,0.98
2023-01-11T16:33:54.865Z,3.08
2023-01-11T16:36:24.582Z,0.65
2023-01-11T16:39:01.782Z,1.30
2023-01-11T16:41:37.570Z,1.10
2023-01-11T16:44:08.996Z,2.40
2023-01-11T16:47:11.208Z,1.40
2023-01-11T16:49:41.177Z,1.60
2023-01-11T16:52:34.758Z,1.25
2023-01-11T16:55:12.144Z,1.23
2023-01-11T16:57:43.635Z,2.17
2023-01-11T17:00:22.289Z,1.50
2023-01-11T17:03:00.753Z,0.80
2023-01-11T17:05:30.190Z,3.42
2023-01-11T17:07:58.234Z,0.73
2023-01-11T17:10:28.584Z,3.38
2023-01-11T17:13:33.275Z,0.98
2023-01-11T17:16:09.954Z,2.03
2023-01-11T17:18:40.845Z,1.45
2023-01-11T17:21:19.077Z,1.45
2023-01-11T17:23:48.576Z,1.83
2023-01-11T17:26:21.051Z,1.27
2023-01-11T17:28:51.159Z,1.80
2023-01-11T17:31:24.046Z,1.70
2023-01-11T17:34:02.718Z,1.77
2023-01-11T17:36:33.651Z,0.80
2023-01-11T17:39:02.248Z,1.20
2023-01-11T17:41:48.130Z,1.38
2023-01-11T17:44:36.841Z,1.58
2023-01-11T17:47:08.487Z,1.55
2023-01-11T17:49:38.452Z,1.10
2023-01-11T17:52:13.026Z,0.75
2023-01-11T17:54:41.103Z,1.70
2023-01-11T17:57:11.163Z,2.03
2023-01-11T17:59:39.151Z,1.50
2023-01-11T18:02:13.526Z,3.13
2023-01-11T18:04:41.832Z,1.75
2023-01-11T18:07:17.820Z,3.03
2023-01-11T18:09:49.310Z,1.95
2023-01-11T18:12:21.524Z,2.58
2023-01-11T18:14:53.372Z,1.58
2023-01-11T18:17:35.043Z,0.75
2023-01-11T18:20:24.721Z,2.72
2023-01-11T18:23:04.489Z,7.00
2023-01-11T18:25:35.166Z,2.50
2023-01-11T18:28:31.053Z,1.48
2023-01-11T18:31:02.137Z,3.28
2023-01-11T18:33:33.588Z,1.13
2023-01-11T18:36:03.337Z,3.00
2023-01-11T18:38:34.422Z,2.17
2023-01-11T18:41:20.873Z,3.08
2023-01-11T18:43:48.894Z,2.42
2023-01-11T18:46:16.962Z,1.08
2023-01-11T18:48:45.011Z,3.85
2023-01-11T18:51:17.729Z,1.60
2023-01-11T18:53:47.083Z,2.60
2023-01-11T18:56:16.400Z,1.92
2023-01-11T18:58:44.512Z,2.38
2023-01-11T19:01:12.868Z,3.05
2023-01-11T19:03:42.047Z,3.40
2023-01-11T19:06:13.542Z,1.60
2023-01-11T19:08:41.591Z,3.50
2023-01-11T19:11:10.849Z,2.97
2023-01-11T19:13:38.883Z,6.15
2023-01-11T19:16:08.261Z,4.80
2023-01-11T19:18:36.239Z,3.90
2023-01-11T19:21:06.495Z,3.92
2023-01-11T19:23:35.222Z,3.13
2023-01-11T19:26:03.251Z,5.57
2023-01-11T19:28:32.675Z,8.27
2023-01-11T19:31:01.000Z,5.53
2023-01-11T19:33:29.039Z,3.95
2023-01-11T19:35:57.158Z,3.65
2023-01-11T19:38:25.131Z,3.22
2023-01-11T19:40:53.212Z,2.17
2023-01-11T19:43:21.140Z,4.95
2023-01-11T19:45:57.313Z,2.40
2023-01-11T19:48:25.620Z,3.42
2023-01-11T19:51:02.167Z,5.57
2023-01-11T19:53:30.924Z,3.47
2023-01-11T19:56:01.571Z,3.10
2023-01-11T19:58:29.725Z,2.95
2023-01-11T20:00:59.104Z,2.38
2023-01-11T20:03:27.458Z,2.42
2023-01-11T20:06:04.657Z,4.22
2023-01-11T20:08:36.197Z,3.38
2023-01-11T20:11:08.307Z,3.40
2023-01-11T20:13:36.644Z,2.55
2023-01-11T20:16:11.125Z,2.53
2023-01-11T20:18:39.174Z,4.22
2023-01-11T20:21:07.176Z,3.10
2023-01-11T20:23:35.482Z,2.22
2023-01-11T20:26:04.862Z,2.38
2023-01-11T20:28:33.242Z,4.07
2023-01-11T20:31:02.331Z,4.07
2023-01-11T20:33:32.075Z,2.88
2023-01-11T20:36:00.037Z,3.65
2023-01-11T20:38:29.081Z,4.28
2023-01-11T20:40:57.722Z,3.05
2023-01-11T20:43:25.729Z,5.50
2023-01-11T20:45:57.389Z,1.80
2023-01-11T20:48:25.437Z,5.15
2023-01-11T20:50:54.839Z,3.92
2023-01-11T20:53:22.851Z,1.73
2023-01-11T20:55:50.793Z,2.63
2023-01-11T20:58:18.783Z,4.80
2023-01-11T21:00:46.739Z,2.33
2023-01-11T21:03:14.724Z,2.75
2023-01-11T21:05:42.639Z,4.18
2023-01-11T21:08:11.929Z,3.33
2023-01-11T21:10:39.868Z,6.75
2023-01-11T21:15:38.089Z,2.10
2023-01-11T21:18:07.245Z,4.93
2023-01-11T21:20:35.486Z,5.07
2023-01-11T21:23:03.541Z,2.85
2023-01-11T21:25:34.501Z,4.32
2023-01-11T21:28:03.177Z,3.05
2023-01-11T21:30:31.109Z,5.70
2023-01-11T21:32:59.168Z,3.95
2023-01-11T21:35:28.066Z,2.55
2023-01-11T21:37:56.092Z,3.20
2023-01-11T21:40:24.075Z,2.60
2023-01-11T21:42:53.522Z,3.10
2023-01-11T21:45:21.497Z,1.98
2023-01-11T21:47:49.428Z,2.67
2023-01-11T21:50:18.227Z,4.60
2023-01-11T21:52:46.113Z,3.78
2023-01-11T21:55:14.141Z,4.03
2023-01-11T21:57:42.102Z,2.90
2023-01-11T22:00:14.575Z,3.95
2023-01-11T22:02:42.598Z,4.95
2023-01-11T22:05:11.177Z,3.17
2023-01-11T22:07:41.279Z,3.08
2023-01-11T22:10:10.613Z,3.53
2023-01-11T22:12:38.577Z,6.15
2023-01-11T22:15:07.493Z,3.92
2023-01-11T22:17:36.847Z,5.50
2023-01-11T22:20:05.341Z,3.47
2023-01-11T22:22:33.479Z,5.05
2023-01-11T22:25:01.445Z,3.95
2023-01-11T22:27:29.499Z,2.30
2023-01-11T22:29:57.360Z,3.92
2023-01-11T22:32:25.815Z,5.07
2023-01-11T22:34:55.135Z,5.35
2023-01-11T22:37:23.137Z,3.15
2023-01-11T22:39:51.151Z,2.58
2023-01-11T22:42:19.464Z,3.25
2023-01-11T22:44:47.514Z,3.47
2023-01-11T22:47:15.412Z,2.58
2023-01-11T22:49:43.509Z,3.17
2023-01-11T22:52:12.815Z,5.25
2023-01-11T22:54:40.677Z,4.60
2023-01-11T22:57:08.653Z,2.60
2023-01-11T22:59:36.590Z,4.35
2023-01-11T23:02:04.639Z,3.22
2023-01-11T23:04:33.259Z,2.05
2023-01-11T23:07:01.192Z,3.25
2023-01-11T23:09:30.529Z,3.55
2023-01-11T23:12:16.046Z,3.70
2023-01-11T23:14:44.036Z,6.18
2023-01-11T23:17:11.943Z,4.95
2023-01-11T23:19:41.717Z,7.15
2023-01-11T23:22:11.126Z,4.68
2023-01-11T23:24:41.116Z,4.35
2023-01-11T23:27:09.153Z,4.57
2023-01-11T23:29:37.183Z,3.42
2023-01-11T23:32:05.412Z,4.97
2023-01-11T23:34:33.418Z,4.32
2023-01-11T23:37:01.417Z,4.70
2023-01-11T23:39:29.321Z,4.00
2023-01-11T23:42:16.300Z,3.30
2023-01-11T23:44:44.358Z,2.85
2023-01-11T23:47:29.729Z,4.38
2023-01-11T23:50:00.358Z,2.47
2023-01-11T23:52:30.268Z,3.60
2023-01-11T23:54:58.507Z,4.43
2023-01-11T23:57:27.989Z,3.30
2023-01-11T23:59:56.053Z,2.53
